| time (UTC) | temp C | wind direction | speed KPH | gust KPH | rain 1hr cm | rain 24hr cm | rain mn cm | humidity % | barometer mb |
| 20260503071937 | 18 | 51 | 4.8 | 11.3 | 0.00 | 0.00 | 0.00 | 98 | 1014.4 |
| 20260503051936 | 21 | 82 | 0.0 | 6.4 | 0.00 | 0.00 | 0.00 | 99 | 1014.5 |
| 20260503044936 | 21 | 45 | 0.0 | 8.0 | 0.00 | 0.00 | 0.00 | 99 | 1014.4 |
| 20260503041938 | 21 | 76 | 0.0 | 3.2 | 0.00 | 0.00 | 0.00 | 99 | 1014.3 |
| 20260503034937 | 21 | 157 | 0.0 | 0.0 | 0.00 | 0.00 | 0.00 | 99 | 1014.2 |
| 20260503031937 | 21 | 160 | 0.0 | 3.2 | 0.00 | 0.00 | 0.00 | 98 | 1013.3 |
| 20260503024941 | 21 | 144 | 0.0 | 4.8 | 0.00 | 0.00 | 0.00 | 98 | 1013.0 |
| 20260503024935 | 21 | 160 | 0.0 | 6.4 | 0.00 | 0.00 | 0.00 | 98 | 1012.8 |
| 20260503014935 | 21 | 160 | 0.0 | 0.0 | 0.00 | 0.00 | 0.00 | 98 | 1012.6 |
| 20260503011937 | 21 | 160 | 0.0 | 8.0 | 0.00 | 0.00 | 0.00 | 98 | 1012.1 |
| 20260503004937 | 21 | 157 | 3.2 | 9.7 | 0.00 | 0.00 | 0.00 | 98 | 1011.7 |
| 20260503001937 | 21 | 228 | 0.0 | 1.6 | 0.00 | 0.00 | 0.00 | 98 | 1011.7 |
| 20260502234937 | 21 | 139 | 0.0 | 3.2 | 0.00 | 0.00 | 0.00 | 98 | 1010.5 |
| 20260502231935 | 21 | 159 | 0.0 | 3.2 | 0.00 | 0.00 | 0.00 | 98 | 1010.9 |
| 20260502224935 | 21 | 181 | 0.0 | 11.3 | 0.00 | 0.00 | 0.00 | 98 | 1010.6 |
| 20260502224930 | 21 | 174 | 4.8 | 11.3 | 0.00 | 0.00 | 0.00 | 98 | 1011.3 |
| 20260502214931 | 21 | 158 | 3.2 | 11.3 | 0.00 | 0.00 | 0.00 | 97 | 1010.6 |
| 20260502211927 | 21 | 167 | 1.6 | 8.0 | 0.00 | 0.00 | 0.00 | 97 | 1010.8 |
| 20260502204928 | 21 | 136 | 0.0 | 1.6 | 0.00 | 0.00 | 0.00 | 97 | 1011.0 |
| 20260502201928 | 21 | 146 | 0.0 | 3.2 | 0.00 | 0.00 | 0.00 | 96 | 1010.8 |
| 20260502194926 | 22 | 304 | 3.2 | 9.7 | 0.00 | 0.00 | 0.00 | 89 | 1011.5 |
| 20260502191925 | 27 | 312 | 0.0 | 6.4 | 0.00 | 0.00 | 0.00 | 85 | 1011.2 |
| 20260502184925 | 27 | 221 | 1.6 | 9.7 | 0.00 | 0.00 | 0.00 | 84 | 1011.3 |
| 20260502181931 | 28 | 273 | 1.6 | 9.7 | 0.00 | 0.00 | 0.00 | 77 | 1011.5 |
| 20260502181925 | 28 | 280 | 1.6 | 8.0 | 0.00 | 0.00 | 0.00 | 80 | 1011.3 |
| 20260502161926 | 30 | 304 | 4.8 | 14.5 | 0.00 | 0.00 | 0.00 | 74 | 1011.5 |
| 20260502151927 | 28 | 241 | 1.6 | 9.7 | 0.00 | 0.00 | 0.00 | 72 | 1011.2 |
| 20260502151923 | 30 | 145 | 1.6 | 9.7 | 0.00 | 0.00 | 0.00 | 71 | 1011.6 |
| 20260502114922 | 21 | 179 | 4.8 | 11.3 | 0.00 | 0.00 | 0.00 | 96 | 1010.2 |
| 20260502111921 | 20 | 133 | 3.2 | 8.0 | 0.00 | 0.00 | 0.00 | 97 | 1010.3 |
| 20260502104922 | 20 | 186 | 1.6 | 6.4 | 0.00 | 0.00 | 0.00 | 97 | 1009.9 |
| 20260502101920 | 21 | 155 | 1.6 | 6.4 | 0.00 | 0.00 | 0.00 | 97 | 1009.7 |